sensor_id;sensor_type;location;lat;lon;timestamp;temperature;humidity
39919;DHT22;25589;51.552;13.424;2023-01-05T00:01:55;11.80;99.90
39919;DHT22;25589;51.552;13.424;2023-01-05T00:04:21;11.70;99.90
39919;DHT22;25589;51.552;13.424;2023-01-05T00:06:47;11.60;99.90
39919;DHT22;25589;51.552;13.424;2023-01-05T00:09:15;11.30;99.90
39919;DHT22;25589;51.552;13.424;2023-01-05T00:11:41;11.00;99.90
39919;DHT22;25589;51.552;13.424;2023-01-05T00:14:28;11.10;99.90
39919;DHT22;25589;51.552;13.424;2023-01-05T00:17:15;11.10;99.90
39919;DHT22;25589;51.552;13.424;2023-01-05T00:19:59;11.30;99.90
39919;DHT22;25589;51.552;13.424;2023-01-05T00:22:51;11.50;99.90
39919;DHT22;25589;51.552;13.424;2023-01-05T00:25:28;11.20;99.90
39919;DHT22;25589;51.552;13.424;2023-01-05T00:27:55;11.00;99.90
39919;DHT22;25589;51.552;13.424;2023-01-05T00:30:32;11.00;99.90
39919;DHT22;25589;51.552;13.424;2023-01-05T00:32:59;11.10;99.90
39919;DHT22;25589;51.552;13.424;2023-01-05T00:35:26;11.00;99.90
39919;DHT22;25589;51.552;13.424;2023-01-05T00:37:53;11.10;99.90
39919;DHT22;25589;51.552;13.424;2023-01-05T00:40:20;11.10;99.90
39919;DHT22;25589;51.552;13.424;2023-01-05T00:42:46;11.10;99.90
39919;DHT22;25589;51.552;13.424;2023-01-05T00:45:13;11.10;99.90
39919;DHT22;25589;51.552;13.424;2023-01-05T00:47:39;11.30;99.90
39919;DHT22;25589;51.552;13.424;2023-01-05T00:50:06;11.30;99.90
39919;DHT22;25589;51.552;13.424;2023-01-05T00:52:33;11.10;99.90
39919;DHT22;25589;51.552;13.424;2023-01-05T00:54:59;11.40;99.90
39919;DHT22;25589;51.552;13.424;2023-01-05T00:57:24;11.40;99.90
39919;DHT22;25589;51.552;13.424;2023-01-05T00:59:52;11.50;99.90
39919;DHT22;25589;51.552;13.424;2023-01-05T01:02:18;11.50;99.90
39919;DHT22;25589;51.552;13.424;2023-01-05T01:04:44;11.40;99.90
39919;DHT22;25589;51.552;13.424;2023-01-05T01:07:10;11.40;99.90
39919;DHT22;25589;51.552;13.424;2023-01-05T01:09:36;11.30;99.90
39919;DHT22;25589;51.552;13.424;2023-01-05T01:12:02;11.40;99.90
39919;DHT22;25589;51.552;13.424;2023-01-05T01:14:28;11.40;99.90
39919;DHT22;25589;51.552;13.424;2023-01-05T01:16:53;11.50;99.90
39919;DHT22;25589;51.552;13.424;2023-01-05T01:19:21;11.50;99.90
39919;DHT22;25589;51.552;13.424;2023-01-05T01:21:47;11.60;99.90
39919;DHT22;25589;51.552;13.424;2023-01-05T01:24:18;11.60;99.90
39919;DHT22;25589;51.552;13.424;2023-01-05T01:26:44;11.20;99.90
39919;DHT22;25589;51.552;13.424;2023-01-05T01:29:10;11.40;99.90
39919;DHT22;25589;51.552;13.424;2023-01-05T01:31:36;11.70;99.90
39919;DHT22;25589;51.552;13.424;2023-01-05T01:34:02;10.90;99.90
39919;DHT22;25589;51.552;13.424;2023-01-05T01:36:28;11.70;99.90
39919;DHT22;25589;51.552;13.424;2023-01-05T01:38:54;11.60;99.90
39919;DHT22;25589;51.552;13.424;2023-01-05T01:41:19;11.60;99.90
39919;DHT22;25589;51.552;13.424;2023-01-05T01:43:53;11.60;99.90
39919;DHT22;25589;51.552;13.424;2023-01-05T01:46:23;11.70;99.90
39919;DHT22;25589;51.552;13.424;2023-01-05T01:51:28;11.10;99.90
39919;DHT22;25589;51.552;13.424;2023-01-05T01:53:57;11.70;99.90
39919;DHT22;25589;51.552;13.424;2023-01-05T01:56:27;12.00;99.90
39919;DHT22;25589;51.552;13.424;2023-01-05T02:01:21;11.60;99.90
39919;DHT22;25589;51.552;13.424;2023-01-05T02:03:46;11.60;99.90
39919;DHT22;25589;51.552;13.424;2023-01-05T02:06:12;11.60;99.90
39919;DHT22;25589;51.552;13.424;2023-01-05T02:08:38;11.60;99.90
39919;DHT22;25589;51.552;13.424;2023-01-05T02:14:11;11.50;99.90
39919;DHT22;25589;51.552;13.424;2023-01-05T02:16:49;11.50;99.90
39919;DHT22;25589;51.552;13.424;2023-01-05T02:19:47;11.50;99.90
39919;DHT22;25589;51.552;13.424;2023-01-05T02:22:45;11.50;99.90
39919;DHT22;25589;51.552;13.424;2023-01-05T02:28:08;11.50;99.90
39919;DHT22;25589;51.552;13.424;2023-01-05T02:44:03;10.80;99.90
39919;DHT22;25589;51.552;13.424;2023-01-05T02:46:31;10.60;99.90
39919;DHT22;25589;51.552;13.424;2023-01-05T02:48:58;10.40;99.90
39919;DHT22;25589;51.552;13.424;2023-01-05T02:51:31;10.40;99.90
39919;DHT22;25589;51.552;13.424;2023-01-05T02:57:03;10.30;99.90
39919;DHT22;25589;51.552;13.424;2023-01-05T02:59:36;10.30;99.90
39919;DHT22;25589;51.552;13.424;2023-01-05T03:02:07;10.40;99.90
39919;DHT22;25589;51.552;13.424;2023-01-05T03:05:07;10.40;99.90
39919;DHT22;25589;51.552;13.424;2023-01-05T03:07:36;10.30;99.90
39919;DHT22;25589;51.552;13.424;2023-01-05T03:10:05;10.60;99.90
39919;DHT22;25589;51.552;13.424;2023-01-05T03:12:54;10.30;99.90
39919;DHT22;25589;51.552;13.424;2023-01-05T03:15:40;10.40;99.90
39919;DHT22;25589;51.552;13.424;2023-01-05T03:18:13;10.50;99.90
39919;DHT22;25589;51.552;13.424;2023-01-05T03:20:48;10.30;99.90
39919;DHT22;25589;51.552;13.424;2023-01-05T03:23:16;10.30;99.90
39919;DHT22;25589;51.552;13.424;2023-01-05T03:26:04;10.50;99.90
39919;DHT22;25589;51.552;13.424;2023-01-05T03:28:57;10.20;99.90
39919;DHT22;25589;51.552;13.424;2023-01-05T03:31:46;10.20;99.90
39919;DHT22;25589;51.552;13.424;2023-01-05T03:34:49;10.10;99.90
39919;DHT22;25589;51.552;13.424;2023-01-05T03:37:43;10.10;99.90
39919;DHT22;25589;51.552;13.424;2023-01-05T03:42:49;9.70;99.90
39919;DHT22;25589;51.552;13.424;2023-01-05T03:45:17;10.20;99.90
39919;DHT22;25589;51.552;13.424;2023-01-05T03:47:43;10.00;99.90
39919;DHT22;25589;51.552;13.424;2023-01-05T03:50:09;9.50;99.90
39919;DHT22;25589;51.552;13.424;2023-01-05T03:52:35;10.00;99.90
39919;DHT22;25589;51.552;13.424;2023-01-05T03:55:01;10.10;99.90
39919;DHT22;25589;51.552;13.424;2023-01-05T03:57:27;10.20;99.90
39919;DHT22;25589;51.552;13.424;2023-01-05T03:59:52;10.00;99.90
39919;DHT22;25589;51.552;13.424;2023-01-05T04:02:19;10.00;99.90
39919;DHT22;25589;51.552;13.424;2023-01-05T04:04:45;10.60;99.90
39919;DHT22;25589;51.552;13.424;2023-01-05T04:07:12;10.00;99.90
39919;DHT22;25589;51.552;13.424;2023-01-05T04:09:37;10.00;99.90
39919;DHT22;25589;51.552;13.424;2023-01-05T04:12:04;10.00;99.90
39919;DHT22;25589;51.552;13.424;2023-01-05T04:14:33;10.00;99.90
39919;DHT22;25589;51.552;13.424;2023-01-05T04:16:59;9.60;99.90
39919;DHT22;25589;51.552;13.424;2023-01-05T04:19:25;10.00;99.90
39919;DHT22;25589;51.552;13.424;2023-01-05T04:21:52;10.10;99.90
39919;DHT22;25589;51.552;13.424;2023-01-05T04:24:20;10.20;99.90
39919;DHT22;25589;51.552;13.424;2023-01-05T04:26:46;10.10;99.90
39919;DHT22;25589;51.552;13.424;2023-01-05T04:29:12;10.10;99.90
39919;DHT22;25589;51.552;13.424;2023-01-05T04:31:39;10.10;99.90
39919;DHT22;25589;51.552;13.424;2023-01-05T04:34:06;10.10;99.90
39919;DHT22;25589;51.552;13.424;2023-01-05T04:36:31;10.10;99.90
39919;DHT22;25589;51.552;13.424;2023-01-05T04:38:58;9.70;99.90
39919;DHT22;25589;51.552;13.424;2023-01-05T04:41:23;10.20;99.90
39919;DHT22;25589;51.552;13.424;2023-01-05T04:43:51;10.20;99.90
39919;DHT22;25589;51.552;13.424;2023-01-05T04:46:18;10.10;99.90
39919;DHT22;25589;51.552;13.424;2023-01-05T04:48:46;10.20;99.90
39919;DHT22;25589;51.552;13.424;2023-01-05T04:51:13;10.30;99.90
39919;DHT22;25589;51.552;13.424;2023-01-05T04:53:39;10.80;99.90
39919;DHT22;25589;51.552;13.424;2023-01-05T04:56:08;10.80;99.90
39919;DHT22;25589;51.552;13.424;2023-01-05T04:58:39;9.90;99.90
39919;DHT22;25589;51.552;13.424;2023-01-05T05:01:04;10.30;99.90
39919;DHT22;25589;51.552;13.424;2023-01-05T05:03:33;10.30;99.90
39919;DHT22;25589;51.552;13.424;2023-01-05T05:05:59;10.30;99.90
39919;DHT22;25589;51.552;13.424;2023-01-05T05:08:27;10.30;99.90
39919;DHT22;25589;51.552;13.424;2023-01-05T05:10:53;10.30;99.90
39919;DHT22;25589;51.552;13.424;2023-01-05T05:13:19;10.30;99.90
39919;DHT22;25589;51.552;13.424;2023-01-05T05:15:46;10.30;99.90
39919;DHT22;25589;51.552;13.424;2023-01-05T05:18:12;10.00;99.90
39919;DHT22;25589;51.552;13.424;2023-01-05T05:20:41;10.30;99.90
39919;DHT22;25589;51.552;13.424;2023-01-05T05:23:09;10.30;99.90
39919;DHT22;25589;51.552;13.424;2023-01-05T05:25:35;10.80;99.90
39919;DHT22;25589;51.552;13.424;2023-01-05T05:28:00;10.40;99.90
39919;DHT22;25589;51.552;13.424;2023-01-05T05:30:26;10.30;99.90
39919;DHT22;25589;51.552;13.424;2023-01-05T05:32:51;10.30;99.90
39919;DHT22;25589;51.552;13.424;2023-01-05T05:35:17;10.40;99.90
39919;DHT22;25589;51.552;13.424;2023-01-05T05:37:43;10.70;99.90
39919;DHT22;25589;51.552;13.424;2023-01-05T05:42:36;10.30;99.90
39919;DHT22;25589;51.552;13.424;2023-01-05T05:45:02;10.20;99.90
39919;DHT22;25589;51.552;13.424;2023-01-05T05:47:27;10.40;99.90
39919;DHT22;25589;51.552;13.424;2023-01-05T05:49:53;10.30;99.90
39919;DHT22;25589;51.552;13.424;2023-01-05T05:52:19;10.30;99.90
39919;DHT22;25589;51.552;13.424;2023-01-05T05:54:44;10.20;99.90
39919;DHT22;25589;51.552;13.424;2023-01-05T05:57:10;10.30;99.90
39919;DHT22;25589;51.552;13.424;2023-01-05T05:59:35;10.30;99.90
39919;DHT22;25589;51.552;13.424;2023-01-05T06:02:01;10.00;99.90
39919;DHT22;25589;51.552;13.424;2023-01-05T06:04:26;10.30;99.90
39919;DHT22;25589;51.552;13.424;2023-01-05T06:06:52;10.10;99.90
39919;DHT22;25589;51.552;13.424;2023-01-05T06:09:18;10.30;99.90
39919;DHT22;25589;51.552;13.424;2023-01-05T06:11:43;10.20;99.90
39919;DHT22;25589;51.552;13.424;2023-01-05T06:14:09;9.90;99.90
39919;DHT22;25589;51.552;13.424;2023-01-05T06:16:35;10.40;99.90
39919;DHT22;25589;51.552;13.424;2023-01-05T06:19:01;10.20;99.90
39919;DHT22;25589;51.552;13.424;2023-01-05T06:21:26;10.20;99.90
39919;DHT22;25589;51.552;13.424;2023-01-05T06:23:52;10.20;99.90
39919;DHT22;25589;51.552;13.424;2023-01-05T06:26:18;10.40;99.90
39919;DHT22;25589;51.552;13.424;2023-01-05T06:28:44;10.20;99.90
39919;DHT22;25589;51.552;13.424;2023-01-05T06:31:09;10.20;99.90
39919;DHT22;25589;51.552;13.424;2023-01-05T06:33:35;10.20;99.90
39919;DHT22;25589;51.552;13.424;2023-01-05T06:36:00;10.20;99.90
39919;DHT22;25589;51.552;13.424;2023-01-05T06:38:26;10.40;99.90
39919;DHT22;25589;51.552;13.424;2023-01-05T06:40:52;10.00;99.90
39919;DHT22;25589;51.552;13.424;2023-01-05T06:43:19;10.30;99.90
39919;DHT22;25589;51.552;13.424;2023-01-05T06:45:44;10.30;99.90
39919;DHT22;25589;51.552;13.424;2023-01-05T06:48:10;10.50;99.90
39919;DHT22;25589;51.552;13.424;2023-01-05T06:50:35;10.60;99.90
39919;DHT22;25589;51.552;13.424;2023-01-05T06:53:01;10.30;99.90
39919;DHT22;25589;51.552;13.424;2023-01-05T06:55:27;10.40;99.90
39919;DHT22;25589;51.552;13.424;2023-01-05T06:57:52;10.40;99.90
39919;DHT22;25589;51.552;13.424;2023-01-05T07:00:18;10.50;99.90
39919;DHT22;25589;51.552;13.424;2023-01-05T07:02:43;10.70;99.90
39919;DHT22;25589;51.552;13.424;2023-01-05T07:05:09;10.50;99.90
39919;DHT22;25589;51.552;13.424;2023-01-05T07:07:35;10.50;99.90
39919;DHT22;25589;51.552;13.424;2023-01-05T07:10:02;10.60;99.90
39919;DHT22;25589;51.552;13.424;2023-01-05T07:12:27;10.60;99.90
39919;DHT22;25589;51.552;13.424;2023-01-05T07:14:53;10.60;99.90
39919;DHT22;25589;51.552;13.424;2023-01-05T07:17:18;11.00;99.90
39919;DHT22;25589;51.552;13.424;2023-01-05T07:19:44;10.60;99.90
39919;DHT22;25589;51.552;13.424;2023-01-05T07:22:09;10.60;99.90
39919;DHT22;25589;51.552;13.424;2023-01-05T07:24:35;10.60;99.90
39919;DHT22;25589;51.552;13.424;2023-01-05T07:27:01;10.60;99.90
39919;DHT22;25589;51.552;13.424;2023-01-05T07:29:27;10.60;99.90
39919;DHT22;25589;51.552;13.424;2023-01-05T07:31:52;10.60;99.90
39919;DHT22;25589;51.552;13.424;2023-01-05T07:34:19;10.50;99.90
39919;DHT22;25589;51.552;13.424;2023-01-05T07:36:44;10.50;99.90
39919;DHT22;25589;51.552;13.424;2023-01-05T07:39:10;10.50;99.90
39919;DHT22;25589;51.552;13.424;2023-01-05T07:41:35;10.40;99.90
39919;DHT22;25589;51.552;13.424;2023-01-05T07:44:01;10.40;99.90
39919;DHT22;25589;51.552;13.424;2023-01-05T07:46:26;10.40;99.90
39919;DHT22;25589;51.552;13.424;2023-01-05T07:48:52;10.50;99.90
39919;DHT22;25589;51.552;13.424;2023-01-05T07:51:18;10.20;99.90
39919;DHT22;25589;51.552;13.424;2023-01-05T07:53:43;10.60;99.90
39919;DHT22;25589;51.552;13.424;2023-01-05T07:56:10;10.40;99.90
39919;DHT22;25589;51.552;13.424;2023-01-05T07:58:36;10.50;99.90
39919;DHT22;25589;51.552;13.424;2023-01-05T08:01:07;10.40;99.90
39919;DHT22;25589;51.552;13.424;2023-01-05T08:03:33;10.30;99.90
39919;DHT22;25589;51.552;13.424;2023-01-05T08:06:06;10.20;99.90
39919;DHT22;25589;51.552;13.424;2023-01-05T08:08:32;10.20;99.90
39919;DHT22;25589;51.552;13.424;2023-01-05T08:10:58;10.20;99.90
39919;DHT22;25589;51.552;13.424;2023-01-05T08:13:23;10.10;99.90
39919;DHT22;25589;51.552;13.424;2023-01-05T08:16:08;10.20;99.90
39919;DHT22;25589;51.552;13.424;2023-01-05T08:18:33;10.20;99.90
39919;DHT22;25589;51.552;13.424;2023-01-05T08:21:00;10.30;99.90
39919;DHT22;25589;51.552;13.424;2023-01-05T08:23:31;10.80;99.90
39919;DHT22;25589;51.552;13.424;2023-01-05T08:25:57;10.30;99.90
39919;DHT22;25589;51.552;13.424;2023-01-05T08:28:28;10.60;99.90
39919;DHT22;25589;51.552;13.424;2023-01-05T08:30:59;10.30;99.90
39919;DHT22;25589;51.552;13.424;2023-01-05T08:33:25;10.40;99.90
39919;DHT22;25589;51.552;13.424;2023-01-05T08:35:50;10.40;99.90
39919;DHT22;25589;51.552;13.424;2023-01-05T08:38:16;10.40;99.90
39919;DHT22;25589;51.552;13.424;2023-01-05T08:40:41;10.40;99.90
39919;DHT22;25589;51.552;13.424;2023-01-05T08:43:07;10.40;99.90
39919;DHT22;25589;51.552;13.424;2023-01-05T08:45:33;10.70;99.90
39919;DHT22;25589;51.552;13.424;2023-01-05T08:47:59;10.20;99.90
39919;DHT22;25589;51.552;13.424;2023-01-05T08:50:25;10.00;99.90
39919;DHT22;25589;51.552;13.424;2023-01-05T08:52:50;10.20;99.90
39919;DHT22;25589;51.552;13.424;2023-01-05T08:55:16;10.10;99.90
39919;DHT22;25589;51.552;13.424;2023-01-05T08:57:42;10.00;99.90
39919;DHT22;25589;51.552;13.424;2023-01-05T09:00:08;9.90;99.90
39919;DHT22;25589;51.552;13.424;2023-01-05T09:02:34;9.60;99.90
39919;DHT22;25589;51.552;13.424;2023-01-05T09:05:00;9.70;99.90
39919;DHT22;25589;51.552;13.424;2023-01-05T09:07:25;9.70;99.90
39919;DHT22;25589;51.552;13.424;2023-01-05T09:09:52;9.80;99.90
39919;DHT22;25589;51.552;13.424;2023-01-05T09:12:18;9.80;99.90
39919;DHT22;25589;51.552;13.424;2023-01-05T09:14:44;9.90;99.90
39919;DHT22;25589;51.552;13.424;2023-01-05T09:17:09;9.90;99.90
39919;DHT22;25589;51.552;13.424;2023-01-05T09:19:35;9.70;99.90
39919;DHT22;25589;51.552;13.424;2023-01-05T09:22:01;10.70;99.90
39919;DHT22;25589;51.552;13.424;2023-01-05T09:24:26;10.30;99.90
39919;DHT22;25589;51.552;13.424;2023-01-05T09:26:52;10.10;99.90
39919;DHT22;25589;51.552;13.424;2023-01-05T09:29:17;10.10;99.90
39919;DHT22;25589;51.552;13.424;2023-01-05T09:31:43;10.00;99.90
39919;DHT22;25589;51.552;13.424;2023-01-05T09:34:09;10.00;99.90
39919;DHT22;25589;51.552;13.424;2023-01-05T09:36:36;9.90;99.90
39919;DHT22;25589;51.552;13.424;2023-01-05T09:39:03;10.00;99.90
39919;DHT22;25589;51.552;13.424;2023-01-05T09:41:37;10.00;99.90
39919;DHT22;25589;51.552;13.424;2023-01-05T09:46:48;10.00;99.90
39919;DHT22;25589;51.552;13.424;2023-01-05T09:49:18;10.00;99.90
39919;DHT22;25589;51.552;13.424;2023-01-05T09:51:44;10.40;99.90
39919;DHT22;25589;51.552;13.424;2023-01-05T09:54:15;10.00;99.90
39919;DHT22;25589;51.552;13.424;2023-01-05T09:56:44;10.10;99.90
39919;DHT22;25589;51.552;13.424;2023-01-05T10:01:40;10.10;99.90
39919;DHT22;25589;51.552;13.424;2023-01-05T10:04:15;10.10;99.90
39919;DHT22;25589;51.552;13.424;2023-01-05T10:09:16;10.20;99.90
39919;DHT22;25589;51.552;13.424;2023-01-05T10:14:38;9.80;99.90
39919;DHT22;25589;51.552;13.424;2023-01-05T10:17:18;10.20;99.90
39919;DHT22;25589;51.552;13.424;2023-01-05T10:19:50;10.20;99.90
39919;DHT22;25589;51.552;13.424;2023-01-05T10:24:57;10.20;99.90
39919;DHT22;25589;51.552;13.424;2023-01-05T10:27:35;10.20;99.90
39919;DHT22;25589;51.552;13.424;2023-01-05T10:38:45;10.40;99.90
39919;DHT22;25589;51.552;13.424;2023-01-05T10:44:29;10.30;99.90
39919;DHT22;25589;51.552;13.424;2023-01-05T10:46:59;10.30;99.90
39919;DHT22;25589;51.552;13.424;2023-01-05T10:49:27;10.30;99.90
39919;DHT22;25589;51.552;13.424;2023-01-05T10:51:55;10.30;99.90
39919;DHT22;25589;51.552;13.424;2023-01-05T10:54:47;10.50;99.90
39919;DHT22;25589;51.552;13.424;2023-01-05T10:59:59;10.30;99.90
39919;DHT22;25589;51.552;13.424;2023-01-05T11:02:30;10.30;99.90
39919;DHT22;25589;51.552;13.424;2023-01-05T11:07:31;10.00;99.90
39919;DHT22;25589;51.552;13.424;2023-01-05T11:10:37;10.40;99.90
39919;DHT22;25589;51.552;13.424;2023-01-05T11:13:23;10.40;99.90
39919;DHT22;25589;51.552;13.424;2023-01-05T11:15:58;10.50;99.90
39919;DHT22;25589;51.552;13.424;2023-01-05T11:18:29;10.60;99.90
39919;DHT22;25589;51.552;13.424;2023-01-05T11:26:25;10.90;99.90
39919;DHT22;25589;51.552;13.424;2023-01-05T11:29:13;10.90;99.90
39919;DHT22;25589;51.552;13.424;2023-01-05T11:31:49;10.90;99.90
39919;DHT22;25589;51.552;13.424;2023-01-05T11:34:16;11.20;99.90
39919;DHT22;25589;51.552;13.424;2023-01-05T11:39:26;10.90;99.90
39919;DHT22;25589;51.552;13.424;2023-01-05T11:42:48;10.40;99.90
39919;DHT22;25589;51.552;13.424;2023-01-05T11:45:03;10.20;99.90
39919;DHT22;25589;51.552;13.424;2023-01-05T11:47:38;9.40;99.90
39919;DHT22;25589;51.552;13.424;2023-01-05T11:50:22;10.00;99.90
39919;DHT22;25589;51.552;13.424;2023-01-05T11:53:01;10.00;99.90
39919;DHT22;25589;51.552;13.424;2023-01-05T11:55:39;10.20;99.90
39919;DHT22;25589;51.552;13.424;2023-01-05T11:58:23;9.70;99.90
39919;DHT22;25589;51.552;13.424;2023-01-05T12:01:14;10.10;99.90
39919;DHT22;25589;51.552;13.424;2023-01-05T12:06:59;10.10;99.90
39919;DHT22;25589;51.552;13.424;2023-01-05T12:09:36;10.20;99.90
39919;DHT22;25589;51.552;13.424;2023-01-05T12:12:18;10.10;99.90
39919;DHT22;25589;51.552;13.424;2023-01-05T12:15:11;10.20;99.90
39919;DHT22;25589;51.552;13.424;2023-01-05T12:17:54;10.40;99.90
39919;DHT22;25589;51.552;13.424;2023-01-05T12:20:54;10.50;99.90
39919;DHT22;25589;51.552;13.424;2023-01-05T12:26:28;10.50;99.90
39919;DHT22;25589;51.552;13.424;2023-01-05T12:29:28;10.90;99.90
39919;DHT22;25589;51.552;13.424;2023-01-05T12:32:33;10.70;99.90
39919;DHT22;25589;51.552;13.424;2023-01-05T12:35:45;10.90;99.90
39919;DHT22;25589;51.552;13.424;2023-01-05T12:38:45;10.30;99.90
39919;DHT22;25589;51.552;13.424;2023-01-05T12:47:16;10.40;99.90
39919;DHT22;25589;51.552;13.424;2023-01-05T12:49:52;10.10;99.90
39919;DHT22;25589;51.552;13.424;2023-01-05T12:52:33;10.40;99.90
39919;DHT22;25589;51.552;13.424;2023-01-05T12:57:32;10.40;99.90
39919;DHT22;25589;51.552;13.424;2023-01-05T13:02:37;10.30;99.90
39919;DHT22;25589;51.552;13.424;2023-01-05T13:10:49;9.90;99.90
39919;DHT22;25589;51.552;13.424;2023-01-05T13:13:21;10.70;99.90
39919;DHT22;25589;51.552;13.424;2023-01-05T13:16:14;10.50;99.90
39919;DHT22;25589;51.552;13.424;2023-01-05T13:18:46;10.40;99.90
39919;DHT22;25589;51.552;13.424;2023-01-05T13:21:13;9.90;99.90
39919;DHT22;25589;51.552;13.424;2023-01-05T13:24:01;9.70;99.90
39919;DHT22;25589;51.552;13.424;2023-01-05T13:26:27;10.30;99.90
39919;DHT22;25589;51.552;13.424;2023-01-05T13:28:55;10.40;99.90
39919;DHT22;25589;51.552;13.424;2023-01-05T13:31:24;10.80;99.90
39919;DHT22;25589;51.552;13.424;2023-01-05T13:37:03;10.60;99.90
39919;DHT22;25589;51.552;13.424;2023-01-05T13:39:38;10.70;99.90
39919;DHT22;25589;51.552;13.424;2023-01-05T13:53:39;10.80;99.90
39919;DHT22;25589;51.552;13.424;2023-01-05T13:56:24;10.80;99.90
39919;DHT22;25589;51.552;13.424;2023-01-05T13:59:29;10.70;99.90
39919;DHT22;25589;51.552;13.424;2023-01-05T14:01:53;10.60;99.90
39919;DHT22;25589;51.552;13.424;2023-01-05T14:04:32;10.50;99.90
39919;DHT22;25589;51.552;13.424;2023-01-05T14:07:04;10.30;99.90
39919;DHT22;25589;51.552;13.424;2023-01-05T14:09:39;10.30;99.90
39919;DHT22;25589;51.552;13.424;2023-01-05T14:20:34;10.30;99.90
39919;DHT22;25589;51.552;13.424;2023-01-05T14:25:53;10.40;99.90
39919;DHT22;25589;51.552;13.424;2023-01-05T14:36:34;9.50;99.90
39919;DHT22;25589;51.552;13.424;2023-01-05T14:39:05;9.30;99.90
39919;DHT22;25589;51.552;13.424;2023-01-05T14:41:32;9.30;99.90
39919;DHT22;25589;51.552;13.424;2023-01-05T14:44:04;9.40;99.90
39919;DHT22;25589;51.552;13.424;2023-01-05T14:46:45;9.40;99.90
39919;DHT22;25589;51.552;13.424;2023-01-05T14:49:20;9.40;99.90
39919;DHT22;25589;51.552;13.424;2023-01-05T14:51:56;8.90;99.90
39919;DHT22;25589;51.552;13.424;2023-01-05T14:54:35;9.30;99.90
39919;DHT22;25589;51.552;13.424;2023-01-05T14:59:56;9.30;99.90
39919;DHT22;25589;51.552;13.424;2023-01-05T15:02:28;9.00;99.90
39919;DHT22;25589;51.552;13.424;2023-01-05T15:05:01;9.10;99.90
39919;DHT22;25589;51.552;13.424;2023-01-05T15:08:10;9.10;99.90
39919;DHT22;25589;51.552;13.424;2023-01-05T15:11:07;9.00;99.90
39919;DHT22;25589;51.552;13.424;2023-01-05T15:20:09;8.70;99.90
39919;DHT22;25589;51.552;13.424;2023-01-05T15:23:02;8.90;99.90
39919;DHT22;25589;51.552;13.424;2023-01-05T15:26:22;8.30;99.90
39919;DHT22;25589;51.552;13.424;2023-01-05T15:28:54;8.90;99.90
39919;DHT22;25589;51.552;13.424;2023-01-05T15:31:34;8.80;99.90
39919;DHT22;25589;51.552;13.424;2023-01-05T15:39:29;9.10;99.90
39919;DHT22;25589;51.552;13.424;2023-01-05T15:41:59;9.00;99.90
39919;DHT22;25589;51.552;13.424;2023-01-05T15:44:30;8.10;99.90
39919;DHT22;25589;51.552;13.424;2023-01-05T15:46:56;8.30;99.90
39919;DHT22;25589;51.552;13.424;2023-01-05T15:49:24;8.50;99.90
39919;DHT22;25589;51.552;13.424;2023-01-05T15:51:53;8.30;99.90
39919;DHT22;25589;51.552;13.424;2023-01-05T15:54:25;8.70;99.90
39919;DHT22;25589;51.552;13.424;2023-01-05T15:56:51;8.50;99.90
39919;DHT22;25589;51.552;13.424;2023-01-05T15:59:34;8.30;99.90
39919;DHT22;25589;51.552;13.424;2023-01-05T16:02:21;8.50;99.90
39919;DHT22;25589;51.552;13.424;2023-01-05T16:04:47;9.00;99.90
39919;DHT22;25589;51.552;13.424;2023-01-05T16:07:13;8.50;99.90
39919;DHT22;25589;51.552;13.424;2023-01-05T16:09:38;8.50;99.90
39919;DHT22;25589;51.552;13.424;2023-01-05T16:12:11;7.80;99.90
39919;DHT22;25589;51.552;13.424;2023-01-05T16:14:49;8.40;99.90
39919;DHT22;25589;51.552;13.424;2023-01-05T16:17:22;8.40;99.90
39919;DHT22;25589;51.552;13.424;2023-01-05T16:19:51;8.40;99.90
39919;DHT22;25589;51.552;13.424;2023-01-05T16:22:35;8.40;99.90
39919;DHT22;25589;51.552;13.424;2023-01-05T16:25:11;8.30;99.90
39919;DHT22;25589;51.552;13.424;2023-01-05T16:27:39;8.30;99.90
39919;DHT22;25589;51.552;13.424;2023-01-05T16:30:26;8.20;99.90
39919;DHT22;25589;51.552;13.424;2023-01-05T16:33:01;8.20;99.90
39919;DHT22;25589;51.552;13.424;2023-01-05T16:35:44;8.00;99.90
39919;DHT22;25589;51.552;13.424;2023-01-05T16:48:45;8.10;99.90
39919;DHT22;25589;51.552;13.424;2023-01-05T16:54:03;7.90;99.90
39919;DHT22;25589;51.552;13.424;2023-01-05T16:58:59;7.80;99.90
39919;DHT22;25589;51.552;13.424;2023-01-05T17:01:36;7.90;99.90
39919;DHT22;25589;51.552;13.424;2023-01-05T17:04:11;7.90;99.90
39919;DHT22;25589;51.552;13.424;2023-01-05T17:06:38;7.90;99.90
39919;DHT22;25589;51.552;13.424;2023-01-05T17:09:11;7.80;99.90
39919;DHT22;25589;51.552;13.424;2023-01-05T17:11:39;7.80;99.90
39919;DHT22;25589;51.552;13.424;2023-01-05T17:14:06;7.80;99.90
39919;DHT22;25589;51.552;13.424;2023-01-05T17:16:31;7.90;99.90
39919;DHT22;25589;51.552;13.424;2023-01-05T17:18:57;7.90;99.90
39919;DHT22;25589;51.552;13.424;2023-01-05T17:21:25;7.80;99.90
39919;DHT22;25589;51.552;13.424;2023-01-05T17:23:54;7.90;99.90
39919;DHT22;25589;51.552;13.424;2023-01-05T17:26:29;7.90;99.90
39919;DHT22;25589;51.552;13.424;2023-01-05T17:29:00;8.70;99.90
39919;DHT22;25589;51.552;13.424;2023-01-05T17:31:26;8.40;99.90
39919;DHT22;25589;51.552;13.424;2023-01-05T17:33:52;8.10;99.90
39919;DHT22;25589;51.552;13.424;2023-01-05T17:36:21;7.80;99.90
39919;DHT22;25589;51.552;13.424;2023-01-05T17:41:16;7.70;99.90
39919;DHT22;25589;51.552;13.424;2023-01-05T17:43:41;7.70;99.90
39919;DHT22;25589;51.552;13.424;2023-01-05T17:46:13;7.70;99.90
39919;DHT22;25589;51.552;13.424;2023-01-05T17:48:40;7.70;99.90
39919;DHT22;25589;51.552;13.424;2023-01-05T17:51:06;7.80;99.90
39919;DHT22;25589;51.552;13.424;2023-01-05T17:53:31;7.50;99.90
39919;DHT22;25589;51.552;13.424;2023-01-05T17:55:57;7.70;99.90
39919;DHT22;25589;51.552;13.424;2023-01-05T17:58:22;7.70;99.90
39919;DHT22;25589;51.552;13.424;2023-01-05T18:00:48;7.70;99.90
39919;DHT22;25589;51.552;13.424;2023-01-05T18:03:15;7.70;99.90
39919;DHT22;25589;51.552;13.424;2023-01-05T18:05:44;7.70;99.90
39919;DHT22;25589;51.552;13.424;2023-01-05T18:08:11;7.60;99.90
39919;DHT22;25589;51.552;13.424;2023-01-05T18:10:37;7.60;99.90
39919;DHT22;25589;51.552;13.424;2023-01-05T18:13:03;7.70;99.90
39919;DHT22;25589;51.552;13.424;2023-01-05T18:15:28;7.40;99.90
39919;DHT22;25589;51.552;13.424;2023-01-05T18:17:58;7.60;99.90
39919;DHT22;25589;51.552;13.424;2023-01-05T18:20:24;7.50;99.90
39919;DHT22;25589;51.552;13.424;2023-01-05T18:22:50;8.00;99.90
39919;DHT22;25589;51.552;13.424;2023-01-05T18:25:16;7.80;99.90